| time (UTC) | temp F | wind direction | speed MPH | gust MPH | rain 1hr in | rain 24hr in | rain mn in | humidity % | barometer mb |
| 20260831134801 | 69 | 187 | 0.0 | 0.0 | 0.05 | 0.31 | 0.29 | 93 | 1014.1 |
| 20260831134231 | 69 | 221 | 0.0 | 0.0 | 0.05 | 0.30 | 0.28 | 93 | 1014.3 |
| 20260831133231 | 69 | 203 | 0.0 | 0.0 | 0.09 | 0.30 | 0.28 | 93 | 1014.3 |
| 20260831132801 | 69 | 246 | 0.0 | 0.0 | 0.10 | 0.30 | 0.28 | 93 | 1014.0 |
| 20260831132231 | 69 | 142 | 0.0 | 0.0 | 0.11 | 0.30 | 0.28 | 93 | 1014.2 |
| 20260831131731 | 69 | 213 | 0.0 | 0.0 | 0.12 | 0.30 | 0.28 | 93 | 1014.3 |
| 20260831131301 | 69 | 211 | 0.0 | 0.0 | 0.12 | 0.29 | 0.27 | 93 | 1014.7 |
| 20260831130731 | 69 | 204 | 0.0 | 0.0 | 0.12 | 0.29 | 0.27 | 93 | 1014.7 |
| 20260831130231 | 69 | 234 | 0.0 | 0.0 | 0.13 | 0.29 | 0.27 | 93 | 1014.7 |
| 20260831125231 | 69 | 221 | 0.0 | 0.0 | 0.12 | 0.27 | 0.25 | 93 | 1014.1 |
| 20260831124801 | 69 | 150 | 0.0 | 0.0 | 0.13 | 0.26 | 0.24 | 93 | 1014.2 |
| 20260831124301 | 68 | 225 | 0.0 | 0.0 | 0.12 | 0.25 | 0.23 | 93 | 1014.3 |
| 20260831123301 | 68 | 190 | 0.0 | 0.0 | 0.10 | 0.21 | 0.19 | 93 | 1014.3 |
| 20260831122801 | 68 | 215 | 0.0 | 0.0 | 0.09 | 0.20 | 0.18 | 93 | 1014.1 |
| 20260831122301 | 68 | 221 | 0.0 | 0.0 | 0.08 | 0.19 | 0.17 | 93 | 1013.8 |
| 20260831121801 | 68 | 222 | 0.0 | 0.0 | 0.07 | 0.18 | 0.16 | 93 | 1013.6 |
| 20260831121231 | 68 | 225 | 0.0 | 0.0 | 0.06 | 0.17 | 0.15 | 93 | 1013.8 |
| 20260831120801 | 68 | 230 | 0.0 | 0.0 | 0.06 | 0.17 | 0.15 | 93 | 1013.4 |
| 20260831120301 | 67 | 230 | 0.0 | 0.0 | 0.05 | 0.16 | 0.14 | 93 | 1013.3 |
| 20260831115301 | 67 | 153 | 0.0 | 0.0 | 0.04 | 0.15 | 0.13 | 93 | 1012.8 |
| 20260831114731 | 67 | 208 | 0.0 | 0.0 | 0.02 | 0.13 | 0.11 | 93 | 1012.8 |
| 20260831114301 | 67 | 192 | 0.0 | 0.0 | 0.02 | 0.13 | 0.11 | 93 | 1012.9 |
| 20260831113301 | 67 | 192 | 0.0 | 0.0 | 0.00 | 0.11 | 0.09 | 93 | 1012.7 |
| 20260831112801 | 67 | 151 | 0.0 | 0.0 | 0.00 | 0.11 | 0.09 | 93 | 1012.6 |
| 20260831112301 | 67 | 217 | 0.0 | 0.0 | 0.00 | 0.11 | 0.09 | 93 | 1012.5 |
| 20260831111231 | 67 | 219 | 0.0 | 0.0 | 0.00 | 0.11 | 0.09 | 93 | 1012.5 |
| 20260831110731 | 67 | 105 | 0.0 | 0.0 | 0.00 | 0.11 | 0.09 | 93 | 1012.4 |
| 20260831110231 | 67 | 130 | 0.0 | 0.0 | 0.00 | 0.11 | 0.09 | 93 | 1012.9 |
| 20260831105801 | 67 | 177 | 0.0 | 0.0 | 0.00 | 0.11 | 0.09 | 93 | 1012.9 |
| 20260831104301 | 67 | 156 | 0.0 | 0.0 | 0.00 | 0.11 | 0.09 | 93 | 1012.9 |
| 20260831103801 | 67 | 113 | 0.0 | 0.0 | 0.01 | 0.11 | 0.09 | 93 | 1012.8 |
| 20260831103231 | 67 | 113 | 0.0 | 0.0 | 0.01 | 0.11 | 0.09 | 93 | 1012.8 |
| 20260831102801 | 67 | 36 | 0.0 | 0.0 | 0.02 | 0.11 | 0.09 | 93 | 1013.2 |
| 20260831102301 | 67 | 77 | 0.0 | 0.0 | 0.02 | 0.11 | 0.09 | 93 | 1013.3 |
| 20260831101731 | 67 | 88 | 0.0 | 0.0 | 0.03 | 0.11 | 0.09 | 93 | 1013.5 |
| 20260831101231 | 67 | 89 | 0.0 | 0.0 | 0.04 | 0.11 | 0.09 | 93 | 1013.5 |
| 20260831100801 | 67 | 65 | 0.0 | 0.0 | 0.04 | 0.11 | 0.09 | 93 | 1013.6 |
| 20260831095750 | 67 | 103 | 0.0 | 0.0 | 0.05 | 0.11 | 0.09 | 93 | 1013.7 |
| 20260831095249 | 67 | 123 | 0.0 | 0.0 | 0.05 | 0.11 | 0.09 | 93 | 1014.0 |
| 20260831094250 | 67 | 105 | 0.0 | 0.0 | 0.06 | 0.11 | 0.09 | 93 | 1014.2 |
| 20260831093750 | 67 | 96 | 0.0 | 0.0 | 0.05 | 0.10 | 0.08 | 93 | 1014.2 |
| 20260831093250 | 67 | 94 | 0.0 | 0.0 | 0.06 | 0.10 | 0.08 | 93 | 1014.3 |
| 20260831092749 | 67 | 46 | 0.0 | 0.0 | 0.06 | 0.09 | 0.07 | 93 | 1014.5 |
| 20260831092250 | 67 | 46 | 0.0 | 0.0 | 0.06 | 0.09 | 0.07 | 94 | 1014.4 |
| 20260831091750 | 66 | 90 | 0.0 | 0.0 | 0.05 | 0.08 | 0.06 | 94 | 1014.2 |
| 20260831091249 | 66 | 355 | 0.0 | 0.0 | 0.04 | 0.07 | 0.05 | 94 | 1014.6 |
| 20260831090749 | 67 | 355 | 0.0 | 0.0 | 0.05 | 0.07 | 0.05 | 94 | 1014.5 |
| 20260831090249 | 67 | 355 | 0.0 | 0.0 | 0.04 | 0.06 | 0.04 | 94 | 1014.6 |
| 20260831085749 | 67 | 355 | 0.0 | 0.0 | 0.04 | 0.06 | 0.04 | 94 | 1014.5 |
| 20260831085249 | 67 | 355 | 0.0 | 0.0 | 0.04 | 0.06 | 0.04 | 94 | 1014.7 |
| 20260831084749 | 67 | 355 | 0.0 | 0.0 | 0.03 | 0.05 | 0.03 | 94 | 1014.5 |
| 20260831084249 | 67 | 355 | 0.0 | 0.0 | 0.03 | 0.05 | 0.03 | 94 | 1014.5 |
| 20260831083750 | 67 | 355 | 0.0 | 0.0 | 0.03 | 0.05 | 0.03 | 94 | 1014.5 |
| 20260831083249 | 67 | 355 | 0.0 | 0.0 | 0.02 | 0.04 | 0.02 | 94 | 1014.7 |
| 20260831082250 | 67 | 355 | 0.0 | 0.0 | 0.01 | 0.03 | 0.01 | 94 | 1014.6 |
| 20260831081750 | 67 | 355 | 0.0 | 0.0 | 0.01 | 0.03 | 0.01 | 94 | 1014.4 |
| 20260831080749 | 67 | 355 | 0.0 | 0.0 | 0.00 | 0.02 | 0.00 | 94 | 1014.3 |
| 20260831075750 | 67 | 323 | 0.0 | 0.0 | 0.00 | 0.02 | 0.00 | 94 | 1014.3 |
| 20260831075250 | 67 | 355 | 0.0 | 0.0 | 0.00 | 0.02 | 0.00 | 94 | 1013.9 |
| 20260831074749 | 67 | 94 | 0.0 | 0.0 | 0.00 | 0.02 | 0.00 | 94 | 1014.6 |
| 20260831074249 | 67 | 95 | 0.0 | 0.0 | 0.00 | 0.02 | 0.00 | 94 | 1014.7 |
| 20260831073749 | 67 | 95 | 0.0 | 0.0 | 0.00 | 0.02 | 0.00 | 94 | 1014.8 |
| 20260831072750 | 67 | 95 | 0.0 | 0.0 | 0.00 | 0.02 | 0.00 | 94 | 1014.6 |
| 20260831072249 | 67 | 95 | 0.0 | 0.0 | 0.00 | 0.02 | 0.00 | 94 | 1014.5 |
| 20260831071750 | 67 | 95 | 0.0 | 0.0 | 0.00 | 0.02 | 0.00 | 94 | 1014.5 |
| 20260831071250 | 67 | 95 | 0.0 | 0.0 | 0.00 | 0.02 | 0.00 | 94 | 1014.3 |
| 20260831070249 | 67 | 95 | 0.0 | 0.0 | 0.00 | 0.02 | 0.00 | 94 | 1013.8 |
| 20260831065749 | 67 | 81 | 0.0 | 0.0 | 0.00 | 0.02 | 0.00 | 94 | 1013.7 |
| 20260831065249 | 67 | 81 | 0.0 | 0.0 | 0.00 | 0.02 | 0.00 | 94 | 1013.7 |
| 20260831064749 | 67 | 81 | 0.0 | 0.0 | 0.00 | 0.02 | 0.00 | 94 | 1013.8 |
| 20260831064250 | 67 | 98 | 0.0 | 0.0 | 0.00 | 0.02 | 0.00 | 94 | 1013.8 |
| 20260831063750 | 67 | 95 | 0.0 | 0.0 | 0.00 | 0.02 | 0.00 | 94 | 1013.7 |
| 20260831063249 | 67 | 94 | 0.0 | 0.0 | 0.00 | 0.02 | 0.00 | 94 | 1013.8 |
| 20260831062250 | 67 | 93 | 0.0 | 0.0 | 0.00 | 0.02 | 0.00 | 94 | 1014.0 |
| 20260831061750 | 67 | 96 | 0.0 | 0.0 | 0.00 | 0.02 | 0.00 | 94 | 1014.1 |
| 20260831061250 | 68 | 116 | 0.0 | 0.0 | 0.00 | 0.02 | 0.00 | 94 | 1014.2 |
| 20260831055753 | 68 | 75 | 0.0 | 0.0 | 0.00 | 0.02 | 0.00 | 94 | 1014.4 |
| 20260831055253 | 68 | 75 | 0.0 | 0.0 | 0.00 | 0.02 | 0.00 | 94 | 1014.6 |
| 20260831054753 | 68 | 75 | 0.0 | 0.0 | 0.00 | 0.02 | 0.00 | 94 | 1014.6 |
| 20260831054253 | 68 | 69 | 0.0 | 0.0 | 0.00 | 0.02 | 0.00 | 94 | 1014.5 |
| 20260831053753 | 68 | 108 | 0.0 | 0.0 | 0.00 | 0.02 | 0.00 | 94 | 1014.5 |
| 20260831052253 | 68 | 126 | 0.0 | 0.0 | 0.00 | 0.02 | 0.00 | 94 | 1014.6 |
| 20260831051753 | 68 | 127 | 0.0 | 0.0 | 0.00 | 0.02 | 0.00 | 94 | 1014.5 |
| 20260831051253 | 68 | 128 | 0.0 | 0.0 | 0.00 | 0.02 | 0.00 | 94 | 1014.4 |
| 20260831050253 | 68 | 122 | 0.0 | 0.0 | 0.00 | 0.02 | 0.00 | 94 | 1014.2 |
| 20260831045753 | 68 | 55 | 0.0 | 0.0 | 0.00 | 0.02 | 0.00 | 94 | 1014.3 |
| 20260831045253 | 68 | 104 | 0.0 | 0.0 | 0.00 | 0.03 | 0.00 | 94 | 1014.4 |
| 20260831044253 | 68 | 178 | 0.0 | 0.0 | 0.00 | 0.03 | 0.00 | 94 | 1014.5 |
| 20260831043753 | 68 | 180 | 0.0 | 0.0 | 0.00 | 0.03 | 0.00 | 94 | 1014.5 |
| 20260831043253 | 68 | 40 | 0.0 | 0.0 | 0.00 | 0.04 | 0.00 | 94 | 1014.6 |
| 20260831042253 | 68 | 118 | 0.0 | 0.0 | 0.00 | 0.04 | 0.00 | 94 | 1014.5 |
| 20260831041753 | 68 | 116 | 0.0 | 0.0 | 0.00 | 0.04 | 0.00 | 94 | 1014.4 |
| 20260831041253 | 68 | 36 | 0.0 | 0.0 | 0.00 | 0.05 | 0.00 | 94 | 1014.4 |
| 20260831035753 | 68 | 120 | 0.0 | 0.0 | 0.00 | 0.09 | 0.00 | 94 | 1014.4 |
| 20260831035253 | 68 | 67 | 0.0 | 0.0 | 0.00 | 0.10 | 0.09 | 94 | 1014.3 |
| 20260831034753 | 68 | 133 | 0.0 | 0.0 | 0.00 | 0.11 | 0.09 | 94 | 1014.4 |
| 20260831034253 | 69 | 166 | 0.0 | 0.0 | 0.00 | 0.12 | 0.09 | 94 | 1014.6 |
| 20260831033753 | 69 | 161 | 0.0 | 0.0 | 0.00 | 0.13 | 0.09 | 94 | 1014.7 |
| 20260831032753 | 69 | 129 | 0.0 | 0.0 | 0.00 | 0.15 | 0.09 | 94 | 1014.7 |
| 20260831032253 | 69 | 67 | 0.0 | 0.0 | 0.00 | 0.15 | 0.09 | 94 | 1014.7 |
| 20260831031753 | 69 | 69 | 0.0 | 0.0 | 0.00 | 0.15 | 0.09 | 94 | 1014.8 |
| 20260831031253 | 69 | 78 | 0.0 | 0.0 | 0.00 | 0.16 | 0.09 | 94 | 1014.7 |
| 20260831030753 | 69 | 176 | 0.0 | 0.0 | 0.00 | 0.16 | 0.09 | 94 | 1014.7 |
| 20260831030253 | 69 | 136 | 0.0 | 0.0 | 0.00 | 0.17 | 0.09 | 94 | 1014.8 |
| 20260831025753 | 69 | 55 | 0.0 | 0.0 | 0.00 | 0.17 | 0.09 | 94 | 1014.7 |
| 20260831025253 | 69 | 64 | 0.0 | 0.0 | 0.00 | 0.17 | 0.09 | 94 | 1014.7 |
| 20260831024753 | 69 | 85 | 0.0 | 0.0 | 0.00 | 0.17 | 0.09 | 94 | 1014.9 |
| 20260831024253 | 69 | 116 | 0.0 | 0.0 | 0.00 | 0.18 | 0.09 | 94 | 1014.9 |
| 20260831023753 | 69 | 78 | 0.0 | 0.0 | 0.00 | 0.18 | 0.09 | 94 | 1014.9 |
| 20260831023253 | 69 | 78 | 0.0 | 0.0 | 0.00 | 0.18 | 0.09 | 94 | 1014.9 |
| 20260831022753 | 69 | 148 | 0.0 | 0.0 | 0.00 | 0.19 | 0.09 | 94 | 1014.9 |
| 20260831022253 | 69 | 81 | 0.0 | 0.0 | 0.00 | 0.19 | 0.09 | 94 | 1014.7 |
| 20260831020753 | 69 | 63 | 0.0 | 0.0 | 0.00 | 0.19 | 0.09 | 94 | 1014.8 |
| 20260831015755 | 69 | 113 | 0.0 | 0.0 | 0.00 | 0.19 | 0.09 | 94 | 1014.9 |
| 20260831015255 | 69 | 78 | 0.0 | 0.0 | 0.00 | 0.20 | 0.09 | 94 | 1014.9 |
| 20260831014255 | 69 | 78 | 0.0 | 0.0 | 0.00 | 0.20 | 0.09 | 94 | 1014.6 |
| 20260831013755 | 69 | 46 | 0.0 | 0.0 | 0.00 | 0.21 | 0.09 | 94 | 1014.4 |
| 20260831013255 | 69 | 83 | 0.0 | 0.0 | 0.00 | 0.21 | 0.09 | 94 | 1014.4 |
| 20260831012755 | 69 | 355 | 0.0 | 0.0 | 0.00 | 0.22 | 0.09 | 94 | 1014.2 |
| 20260831012255 | 69 | 35 | 0.0 | 0.0 | 0.00 | 0.22 | 0.09 | 94 | 1014.2 |
| 20260831011755 | 69 | 5 | 0.0 | 0.0 | 0.00 | 0.23 | 0.09 | 94 | 1014.1 |
| 20260831011255 | 69 | 53 | 0.0 | 0.0 | 0.00 | 0.24 | 0.09 | 94 | 1014.1 |
| 20260831010755 | 69 | 86 | 0.0 | 0.0 | 0.00 | 0.24 | 0.09 | 94 | 1014.0 |
| 20260831010255 | 69 | 56 | 0.0 | 0.0 | 0.00 | 0.25 | 0.09 | 94 | 1014.1 |
| 20260831005755 | 69 | 49 | 0.0 | 0.0 | 0.00 | 0.25 | 0.09 | 94 | 1014.3 |
| 20260831005255 | 69 | 112 | 0.0 | 0.0 | 0.00 | 0.25 | 0.09 | 94 | 1014.1 |
| 20260831004756 | 69 | 180 | 0.0 | 0.0 | 0.00 | 0.25 | 0.09 | 94 | 1014.1 |
| 20260831004255 | 69 | 59 | 0.0 | 0.0 | 0.00 | 0.25 | 0.09 | 94 | 1014.1 |
| 20260831003755 | 69 | 44 | 0.0 | 0.0 | 0.00 | 0.25 | 0.09 | 94 | 1014.3 |
| 20260831003255 | 69 | 38 | 0.0 | 0.0 | 0.00 | 0.25 | 0.09 | 94 | 1014.2 |
| 20260831002755 | 69 | 28 | 0.0 | 0.0 | 0.00 | 0.25 | 0.09 | 94 | 1014.1 |
| 20260831002255 | 69 | 36 | 0.0 | 0.0 | 0.00 | 0.25 | 0.09 | 94 | 1014.0 |
| 20260831001755 | 69 | 19 | 0.0 | 0.0 | 0.00 | 0.25 | 0.09 | 94 | 1014.0 |
| 20260831001255 | 69 | 34 | 0.0 | 0.0 | 0.00 | 0.25 | 0.09 | 94 | 1014.1 |
| 20260831000755 | 70 | 33 | 0.0 | 0.0 | 0.00 | 0.25 | 0.09 | 94 | 1014.0 |
| 20260831000256 | 70 | 30 | 0.0 | 0.0 | 0.00 | 0.25 | 0.09 | 94 | 1014.0 |
| 20260830235755 | 70 | 16 | 0.0 | 0.0 | 0.00 | 0.25 | 0.09 | 94 | 1014.0 |
| 20260830235255 | 70 | 32 | 0.0 | 0.0 | 0.00 | 0.25 | 0.09 | 93 | 1014.0 |
| 20260830234755 | 70 | 11 | 0.0 | 0.0 | 0.00 | 0.25 | 0.09 | 93 | 1013.9 |
| 20260830234255 | 70 | 123 | 0.0 | 0.0 | 0.00 | 0.25 | 0.09 | 93 | 1013.8 |
| 20260830232755 | 70 | 21 | 0.0 | 0.0 | 0.00 | 0.25 | 0.09 | 93 | 1014.0 |
| 20260830231755 | 70 | 107 | 0.0 | 0.0 | 0.00 | 0.25 | 0.09 | 93 | 1014.0 |
| 20260830231255 | 70 | 44 | 0.0 | 0.0 | 0.00 | 0.25 | 0.09 | 93 | 1013.9 |
| 20260830230755 | 70 | 35 | 0.0 | 0.0 | 0.00 | 0.25 | 0.09 | 93 | 1013.9 |
| 20260830225755 | 70 | 333 | 0.0 | 0.0 | 0.00 | 0.25 | 0.09 | 93 | 1013.7 |
| 20260830225255 | 71 | 38 | 0.0 | 0.0 | 0.00 | 0.25 | 0.09 | 93 | 1013.5 |
| 20260830224755 | 71 | 92 | 0.0 | 0.0 | 0.00 | 0.25 | 0.09 | 93 | 1013.6 |
| 20260830224255 | 71 | 101 | 0.0 | 0.0 | 0.00 | 0.25 | 0.09 | 93 | 1013.7 |
| 20260830223755 | 71 | 54 | 0.0 | 0.0 | 0.01 | 0.25 | 0.09 | 93 | 1013.8 |
| 20260830223255 | 71 | 59 | 0.0 | 0.0 | 0.01 | 0.25 | 0.09 | 93 | 1014.0 |
| 20260830222755 | 71 | 36 | 0.0 | 0.0 | 0.01 | 0.25 | 0.09 | 93 | 1014.3 |
| 20260830222255 | 71 | 53 | 0.0 | 0.0 | 0.01 | 0.25 | 0.09 | 93 | 1014.2 |
| 20260830221755 | 71 | 49 | 0.0 | 0.0 | 0.01 | 0.26 | 0.09 | 93 | 1014.1 |
| 20260830221255 | 71 | 65 | 0.0 | 0.0 | 0.01 | 0.26 | 0.09 | 93 | 1014.2 |
| 20260830215752 | 71 | 128 | 0.0 | 0.0 | 0.02 | 0.26 | 0.09 | 92 | 1014.3 |
| 20260830214752 | 71 | 128 | 0.0 | 0.0 | 0.02 | 0.26 | 0.09 | 91 | 1014.1 |
| 20260830214251 | 72 | 128 | 0.0 | 0.0 | 0.02 | 0.26 | 0.09 | 91 | 1014.1 |
| 20260830213752 | 72 | 106 | 0.0 | 0.0 | 0.01 | 0.25 | 0.08 | 90 | 1014.1 |
| 20260830213251 | 72 | 138 | 0.0 | 0.0 | 0.01 | 0.25 | 0.08 | 91 | 1014.3 |
| 20260830212751 | 72 | 65 | 0.0 | 0.0 | 0.01 | 0.25 | 0.08 | 90 | 1014.5 |
| 20260830212251 | 72 | 65 | 0.0 | 0.0 | 0.01 | 0.25 | 0.08 | 90 | 1014.6 |
| 20260830211751 | 72 | 65 | 0.0 | 0.0 | 0.01 | 0.25 | 0.08 | 89 | 1014.7 |
| 20260830210752 | 73 | 65 | 0.0 | 0.0 | 0.00 | 0.24 | 0.07 | 88 | 1014.6 |
| 20260830210251 | 73 | 31 | 0.0 | 0.0 | 0.00 | 0.24 | 0.07 | 87 | 1014.5 |
| 20260830205752 | 73 | 82 | 0.0 | 0.0 | 0.00 | 0.24 | 0.07 | 86 | 1014.2 |
| 20260830205251 | 73 | 67 | 0.0 | 0.0 | 0.00 | 0.24 | 0.07 | 87 | 1014.2 |
| 20260830204751 | 73 | 91 | 0.0 | 0.0 | 0.00 | 0.24 | 0.07 | 86 | 1014.2 |
| 20260830203752 | 73 | 58 | 0.0 | 0.0 | 0.00 | 0.24 | 0.07 | 86 | 1014.3 |
| 20260830203251 | 73 | 58 | 0.0 | 0.0 | 0.00 | 0.24 | 0.07 | 86 | 1014.3 |
| 20260830202752 | 73 | 58 | 0.0 | 0.0 | 0.00 | 0.24 | 0.07 | 86 | 1014.3 |
| 20260830202251 | 73 | 40 | 0.0 | 0.0 | 0.00 | 0.24 | 0.07 | 86 | 1014.3 |
| 20260830201752 | 73 | 58 | 0.0 | 0.0 | 0.00 | 0.24 | 0.07 | 85 | 1014.1 |
| 20260830201251 | 73 | 88 | 0.0 | 0.0 | 0.00 | 0.24 | 0.07 | 86 | 1014.2 |
| 20260830200751 | 73 | 65 | 0.0 | 0.0 | 0.00 | 0.24 | 0.07 | 86 | 1014.2 |
| 20260830195751 | 73 | 119 | 0.0 | 0.0 | 0.00 | 0.24 | 0.07 | 87 | 1014.3 |
| 20260830194751 | 72 | 80 | 0.0 | 0.0 | 0.00 | 0.24 | 0.07 | 87 | 1014.3 |
| 20260830194251 | 72 | 127 | 0.0 | 0.0 | 0.00 | 0.24 | 0.07 | 87 | 1014.4 |
| 20260830193751 | 72 | 157 | 0.0 | 0.0 | 0.00 | 0.24 | 0.07 | 87 | 1014.4 |
| 20260830193251 | 72 | 126 | 0.0 | 0.0 | 0.00 | 0.24 | 0.07 | 87 | 1014.4 |
| 20260830192751 | 72 | 71 | 0.0 | 0.0 | 0.00 | 0.24 | 0.07 | 87 | 1014.3 |
| 20260830192251 | 72 | 84 | 0.0 | 0.0 | 0.00 | 0.24 | 0.07 | 87 | 1014.2 |
| 20260830191751 | 72 | 76 | 0.0 | 0.0 | 0.00 | 0.24 | 0.07 | 88 | 1014.2 |
| 20260830191251 | 72 | 176 | 0.0 | 0.0 | 0.00 | 0.24 | 0.07 | 87 | 1014.3 |
| 20260830190751 | 72 | 156 | 0.0 | 0.0 | 0.00 | 0.24 | 0.07 | 87 | 1014.2 |
| 20260830190251 | 72 | 156 | 0.0 | 0.0 | 0.00 | 0.24 | 0.07 | 87 | 1014.2 |
| 20260830185251 | 72 | 117 | 0.0 | 0.0 | 0.00 | 0.24 | 0.07 | 87 | 1014.2 |
| 20260830184752 | 72 | 88 | 0.0 | 0.0 | 0.00 | 0.24 | 0.07 | 87 | 1014.2 |
| 20260830184251 | 72 | 109 | 0.0 | 0.0 | 0.00 | 0.24 | 0.07 | 87 | 1014.4 |
| 20260830183751 | 72 | 79 | 0.0 | 0.0 | 0.00 | 0.24 | 0.07 | 87 | 1014.5 |
| 20260830183251 | 72 | 105 | 0.0 | 0.0 | 0.00 | 0.24 | 0.07 | 87 | 1014.4 |
| 20260830182752 | 72 | 105 | 0.0 | 0.0 | 0.00 | 0.24 | 0.07 | 86 | 1014.6 |
| 20260830182251 | 72 | 90 | 0.0 | 0.0 | 0.00 | 0.24 | 0.07 | 87 | 1014.5 |
| 20260830181751 | 72 | 182 | 0.0 | 0.0 | 0.00 | 0.24 | 0.07 | 86 | 1014.4 |
| 20260830181251 | 72 | 146 | 0.0 | 0.0 | 0.00 | 0.24 | 0.07 | 87 | 1014.4 |
| 20260830180751 | 72 | 178 | 0.0 | 0.0 | 0.00 | 0.24 | 0.07 | 86 | 1014.3 |
| 20260830175802 | 72 | 123 | 0.0 | 0.0 | 0.00 | 0.24 | 0.07 | 85 | 1014.3 |
| 20260830175232 | 72 | 173 | 0.0 | 0.0 | 0.00 | 0.24 | 0.07 | 85 | 1014.3 |
| 20260830174733 | 72 | 102 | 0.0 | 0.0 | 0.00 | 0.24 | 0.07 | 85 | 1014.4 |
| 20260830174232 | 72 | 199 | 0.0 | 0.0 | 0.00 | 0.24 | 0.07 | 86 | 1014.4 |
| 20260830173802 | 72 | 240 | 0.0 | 0.0 | 0.00 | 0.24 | 0.07 | 86 | 1014.4 |
| 20260830171255 | 72 | 193 | 0.0 | 0.0 | 0.00 | 0.24 | 0.07 | 85 | 1014.4 |
| 20260830170755 | 72 | 136 | 0.0 | 0.0 | 0.00 | 0.24 | 0.07 | 85 | 1014.4 |
| 20260830170255 | 72 | 207 | 0.0 | 0.0 | 0.00 | 0.24 | 0.07 | 86 | 1014.4 |
| 20260830165755 | 72 | 176 | 0.0 | 0.0 | 0.00 | 0.24 | 0.07 | 87 | 1014.4 |
| 20260830164755 | 72 | 141 | 0.0 | 0.0 | 0.00 | 0.24 | 0.07 | 86 | 1014.5 |
| 20260830164255 | 72 | 214 | 0.0 | 0.0 | 0.00 | 0.24 | 0.07 | 87 | 1014.4 |
| 20260830163255 | 71 | 179 | 0.0 | 0.0 | 0.00 | 0.24 | 0.07 | 87 | 1014.4 |
| 20260830162755 | 71 | 220 | 0.0 | 0.0 | 0.00 | 0.24 | 0.07 | 89 | 1014.4 |
| 20260830162255 | 70 | 216 | 0.0 | 0.0 | 0.00 | 0.24 | 0.07 | 89 | 1014.3 |
| 20260830161755 | 70 | 293 | 0.0 | 0.0 | 0.00 | 0.24 | 0.07 | 88 | 1014.4 |
| 20260830161255 | 70 | 70 | 0.0 | 0.0 | 0.00 | 0.24 | 0.07 | 89 | 1014.4 |
| 20260830160755 | 70 | 201 | 0.0 | 0.0 | 0.00 | 0.24 | 0.07 | 89 | 1014.4 |
| 20260830160255 | 70 | 227 | 0.0 | 0.0 | 0.00 | 0.24 | 0.07 | 89 | 1014.5 |
| 20260830155755 | 70 | 109 | 0.0 | 0.0 | 0.00 | 0.24 | 0.07 | 90 | 1014.5 |
| 20260830155255 | 70 | 232 | 0.0 | 0.0 | 0.00 | 0.24 | 0.07 | 90 | 1014.5 |
| 20260830154755 | 69 | 178 | 0.0 | 0.0 | 0.00 | 0.24 | 0.07 | 91 | 1014.4 |
| 20260830154255 | 69 | 254 | 0.0 | 0.0 | 0.00 | 0.24 | 0.07 | 91 | 1014.5 |
| 20260830153755 | 68 | 242 | 0.0 | 0.0 | 0.00 | 0.24 | 0.07 | 92 | 1014.5 |
| 20260830153255 | 68 | 198 | 0.0 | 0.0 | 0.00 | 0.24 | 0.07 | 91 | 1014.6 |
| 20260830152755 | 68 | 232 | 0.0 | 0.0 | 0.00 | 0.24 | 0.07 | 92 | 1014.7 |
| 20260830151755 | 68 | 157 | 0.0 | 0.0 | 0.00 | 0.24 | 0.07 | 92 | 1014.6 |
| 20260830151255 | 68 | 238 | 0.0 | 0.0 | 0.00 | 0.24 | 0.07 | 92 | 1014.6 |
| 20260830150255 | 68 | 156 | 0.0 | 0.0 | 0.00 | 0.24 | 0.07 | 92 | 1014.5 |
| 20260830145755 | 68 | 262 | 0.0 | 0.0 | 0.00 | 0.24 | 0.07 | 92 | 1014.6 |
| 20260830145255 | 68 | 165 | 0.0 | 0.0 | 0.00 | 0.24 | 0.07 | 92 | 1014.6 |
| 20260830144255 | 67 | 150 | 0.0 | 0.0 | 0.00 | 0.24 | 0.07 | 92 | 1014.5 |
| 20260830143755 | 67 | 213 | 0.0 | 0.0 | 0.00 | 0.24 | 0.07 | 93 | 1014.4 |
| 20260830143255 | 67 | 291 | 0.0 | 0.0 | 0.00 | 0.24 | 0.07 | 93 | 1014.5 |
| 20260830142755 | 67 | 166 | 0.0 | 0.0 | 0.00 | 0.24 | 0.07 | 93 | 1014.5 |
| 20260830142255 | 67 | 198 | 0.0 | 0.0 | 0.00 | 0.24 | 0.07 | 93 | 1014.6 |
| 20260830141755 | 67 | 167 | 0.0 | 0.0 | 0.00 | 0.24 | 0.07 | 93 | 1014.6 |
| 20260830141255 | 67 | 216 | 0.0 | 0.0 | 0.00 | 0.24 | 0.07 | 93 | 1014.6 |
| 20260830140755 | 67 | 175 | 0.0 | 0.0 | 0.00 | 0.24 | 0.07 | 93 | 1014.5 |
| 20260830135742 | 66 | 194 | 0.0 | 0.0 | 0.00 | 0.24 | 0.07 | 94 | 1014.5 |
| 20260830135242 | 66 | 140 | 0.0 | 0.0 | 0.00 | 0.24 | 0.07 | 93 | 1014.4 |